sensor_id;sensor_type;location;lat;lon;timestamp;P1;durP1;ratioP1;P2;durP2;ratioP2
23171;SDS011;11754;42.664;23.594;2023-04-24T00:01:11;10.30;;;4.78;;
23171;SDS011;11754;42.664;23.594;2023-04-24T00:03:37;9.85;;;5.07;;
23171;SDS011;11754;42.664;23.594;2023-04-24T00:06:03;8.55;;;4.93;;
23171;SDS011;11754;42.664;23.594;2023-04-24T00:08:30;10.75;;;5.53;;
23171;SDS011;11754;42.664;23.594;2023-04-24T00:10:55;13.20;;;5.68;;
23171;SDS011;11754;42.664;23.594;2023-04-24T00:13:21;11.40;;;5.72;;
23171;SDS011;11754;42.664;23.594;2023-04-24T00:15:46;11.25;;;6.00;;
23171;SDS011;11754;42.664;23.594;2023-04-24T00:18:12;10.43;;;6.45;;
23171;SDS011;11754;42.664;23.594;2023-04-24T00:20:37;12.13;;;6.78;;
23171;SDS011;11754;42.664;23.594;2023-04-24T00:23:03;14.35;;;6.82;;
23171;SDS011;11754;42.664;23.594;2023-04-24T00:25:28;12.68;;;6.97;;
23171;SDS011;11754;42.664;23.594;2023-04-24T00:27:54;8.20;;;5.97;;
23171;SDS011;11754;42.664;23.594;2023-04-24T00:30:19;10.00;;;5.72;;
23171;SDS011;11754;42.664;23.594;2023-04-24T00:32:44;9.98;;;5.60;;
23171;SDS011;11754;42.664;23.594;2023-04-24T00:35:10;12.18;;;5.30;;
23171;SDS011;11754;42.664;23.594;2023-04-24T00:37:35;7.68;;;5.35;;
23171;SDS011;11754;42.664;23.594;2023-04-24T00:40:01;11.82;;;5.78;;
23171;SDS011;11754;42.664;23.594;2023-04-24T00:42:26;14.38;;;5.75;;
23171;SDS011;11754;42.664;23.594;2023-04-24T00:44:52;8.75;;;5.70;;
23171;SDS011;11754;42.664;23.594;2023-04-24T00:47:18;7.93;;;5.55;;
23171;SDS011;11754;42.664;23.594;2023-04-24T00:49:44;9.05;;;5.78;;
23171;SDS011;11754;42.664;23.594;2023-04-24T00:52:09;12.30;;;6.15;;
23171;SDS011;11754;42.664;23.594;2023-04-24T00:54:35;10.40;;;6.20;;
23171;SDS011;11754;42.664;23.594;2023-04-24T00:57:02;12.88;;;6.22;;
23171;SDS011;11754;42.664;23.594;2023-04-24T00:59:28;9.68;;;5.72;;
23171;SDS011;11754;42.664;23.594;2023-04-24T01:01:54;11.93;;;6.03;;
23171;SDS011;11754;42.664;23.594;2023-04-24T01:04:20;9.30;;;6.35;;
23171;SDS011;11754;42.664;23.594;2023-04-24T01:06:46;12.52;;;6.43;;
23171;SDS011;11754;42.664;23.594;2023-04-24T01:09:13;8.75;;;6.38;;
23171;SDS011;11754;42.664;23.594;2023-04-24T01:11:40;11.00;;;5.90;;
23171;SDS011;11754;42.664;23.594;2023-04-24T01:14:06;10.13;;;5.30;;
23171;SDS011;11754;42.664;23.594;2023-04-24T01:16:32;10.77;;;5.35;;
23171;SDS011;11754;42.664;23.594;2023-04-24T01:18:58;12.45;;;5.50;;
23171;SDS011;11754;42.664;23.594;2023-04-24T01:21:23;11.68;;;5.47;;
23171;SDS011;11754;42.664;23.594;2023-04-24T01:23:52;12.27;;;5.47;;
23171;SDS011;11754;42.664;23.594;2023-04-24T01:26:18;10.32;;;5.60;;
23171;SDS011;11754;42.664;23.594;2023-04-24T01:28:45;10.82;;;5.60;;
23171;SDS011;11754;42.664;23.594;2023-04-24T01:31:11;10.82;;;5.70;;
23171;SDS011;11754;42.664;23.594;2023-04-24T01:33:36;12.43;;;5.68;;
23171;SDS011;11754;42.664;23.594;2023-04-24T01:36:02;10.13;;;5.63;;
23171;SDS011;11754;42.664;23.594;2023-04-24T01:38:28;9.10;;;5.78;;
23171;SDS011;11754;42.664;23.594;2023-04-24T01:40:53;11.68;;;5.32;;
23171;SDS011;11754;42.664;23.594;2023-04-24T01:43:18;11.60;;;5.20;;
23171;SDS011;11754;42.664;23.594;2023-04-24T01:45:44;9.85;;;5.45;;
23171;SDS011;11754;42.664;23.594;2023-04-24T01:48:11;7.40;;;5.15;;
23171;SDS011;11754;42.664;23.594;2023-04-24T01:50:37;9.90;;;5.25;;
23171;SDS011;11754;42.664;23.594;2023-04-24T01:53:03;13.20;;;5.43;;
23171;SDS011;11754;42.664;23.594;2023-04-24T01:55:29;9.23;;;5.60;;
23171;SDS011;11754;42.664;23.594;2023-04-24T01:57:55;8.23;;;5.00;;
23171;SDS011;11754;42.664;23.594;2023-04-24T02:00:21;8.63;;;5.50;;
23171;SDS011;11754;42.664;23.594;2023-04-24T02:02:47;10.63;;;5.32;;
23171;SDS011;11754;42.664;23.594;2023-04-24T02:05:12;10.13;;;5.28;;
23171;SDS011;11754;42.664;23.594;2023-04-24T02:07:38;10.23;;;5.28;;
23171;SDS011;11754;42.664;23.594;2023-04-24T02:10:03;8.25;;;5.72;;
23171;SDS011;11754;42.664;23.594;2023-04-24T02:12:29;7.90;;;5.50;;
23171;SDS011;11754;42.664;23.594;2023-04-24T02:14:55;6.20;;;5.15;;
23171;SDS011;11754;42.664;23.594;2023-04-24T02:17:20;9.23;;;5.43;;
23171;SDS011;11754;42.664;23.594;2023-04-24T02:19:46;8.57;;;5.45;;
23171;SDS011;11754;42.664;23.594;2023-04-24T02:22:11;8.25;;;5.22;;
23171;SDS011;11754;42.664;23.594;2023-04-24T02:24:37;11.55;;;5.75;;
23171;SDS011;11754;42.664;23.594;2023-04-24T02:27:03;10.30;;;5.53;;
23171;SDS011;11754;42.664;23.594;2023-04-24T02:29:28;8.63;;;5.18;;
23171;SDS011;11754;42.664;23.594;2023-04-24T02:31:54;7.63;;;5.35;;
23171;SDS011;11754;42.664;23.594;2023-04-24T02:34:19;8.57;;;4.97;;
23171;SDS011;11754;42.664;23.594;2023-04-24T02:36:45;10.60;;;5.03;;
23171;SDS011;11754;42.664;23.594;2023-04-24T02:39:10;8.50;;;5.15;;
23171;SDS011;11754;42.664;23.594;2023-04-24T02:41:36;7.05;;;5.07;;
23171;SDS011;11754;42.664;23.594;2023-04-24T02:44:01;10.93;;;5.28;;
23171;SDS011;11754;42.664;23.594;2023-04-24T02:46:27;9.43;;;5.68;;
23171;SDS011;11754;42.664;23.594;2023-04-24T02:48:52;9.90;;;5.82;;
23171;SDS011;11754;42.664;23.594;2023-04-24T02:51:17;17.48;;;9.85;;
23171;SDS011;11754;42.664;23.594;2023-04-24T02:53:43;13.50;;;8.35;;
23171;SDS011;11754;42.664;23.594;2023-04-24T02:56:08;12.40;;;6.95;;
23171;SDS011;11754;42.664;23.594;2023-04-24T02:58:37;11.60;;;6.80;;
23171;SDS011;11754;42.664;23.594;2023-04-24T03:01:02;10.52;;;6.30;;
23171;SDS011;11754;42.664;23.594;2023-04-24T03:03:28;12.07;;;6.30;;
23171;SDS011;11754;42.664;23.594;2023-04-24T03:05:53;11.07;;;7.00;;
23171;SDS011;11754;42.664;23.594;2023-04-24T03:08:18;11.45;;;6.05;;
23171;SDS011;11754;42.664;23.594;2023-04-24T03:10:44;17.38;;;7.32;;
23171;SDS011;11754;42.664;23.594;2023-04-24T03:13:09;10.80;;;6.50;;
23171;SDS011;11754;42.664;23.594;2023-04-24T03:15:35;52.28;;;45.58;;
23171;SDS011;11754;42.664;23.594;2023-04-24T03:18:00;74.05;;;63.40;;
23171;SDS011;11754;42.664;23.594;2023-04-24T03:20:26;70.97;;;60.00;;
23171;SDS011;11754;42.664;23.594;2023-04-24T03:22:51;41.88;;;32.67;;
23171;SDS011;11754;42.664;23.594;2023-04-24T03:25:17;29.38;;;19.73;;
23171;SDS011;11754;42.664;23.594;2023-04-24T03:27:42;20.25;;;13.43;;
23171;SDS011;11754;42.664;23.594;2023-04-24T03:30:09;13.77;;;9.05;;
23171;SDS011;11754;42.664;23.594;2023-04-24T03:32:35;13.35;;;7.97;;
23171;SDS011;11754;42.664;23.594;2023-04-24T03:35:00;15.90;;;7.95;;
23171;SDS011;11754;42.664;23.594;2023-04-24T03:37:26;12.60;;;6.95;;
23171;SDS011;11754;42.664;23.594;2023-04-24T03:39:51;10.85;;;7.13;;
23171;SDS011;11754;42.664;23.594;2023-04-24T03:42:17;13.35;;;6.47;;
23171;SDS011;11754;42.664;23.594;2023-04-24T03:44:42;11.82;;;6.50;;
23171;SDS011;11754;42.664;23.594;2023-04-24T03:47:07;12.27;;;6.68;;
23171;SDS011;11754;42.664;23.594;2023-04-24T03:49:33;10.60;;;6.65;;
23171;SDS011;11754;42.664;23.594;2023-04-24T03:51:58;14.57;;;6.68;;
23171;SDS011;11754;42.664;23.594;2023-04-24T03:54:23;16.92;;;6.85;;
23171;SDS011;11754;42.664;23.594;2023-04-24T03:56:49;10.55;;;6.10;;
23171;SDS011;11754;42.664;23.594;2023-04-24T03:59:14;12.45;;;6.50;;
23171;SDS011;11754;42.664;23.594;2023-04-24T04:01:40;18.08;;;8.63;;
23171;SDS011;11754;42.664;23.594;2023-04-24T04:04:05;15.40;;;9.32;;
23171;SDS011;11754;42.664;23.594;2023-04-24T04:06:31;12.40;;;7.30;;
23171;SDS011;11754;42.664;23.594;2023-04-24T04:08:57;12.07;;;7.07;;
23171;SDS011;11754;42.664;23.594;2023-04-24T04:11:23;14.65;;;6.55;;
23171;SDS011;11754;42.664;23.594;2023-04-24T04:13:49;10.43;;;7.07;;
23171;SDS011;11754;42.664;23.594;2023-04-24T04:16:15;13.50;;;6.95;;
23171;SDS011;11754;42.664;23.594;2023-04-24T04:18:44;14.25;;;7.13;;
23171;SDS011;11754;42.664;23.594;2023-04-24T04:21:10;40.70;;;14.32;;
23171;SDS011;11754;42.664;23.594;2023-04-24T04:23:35;27.50;;;11.48;;
23171;SDS011;11754;42.664;23.594;2023-04-24T04:26:01;21.30;;;9.68;;
23171;SDS011;11754;42.664;23.594;2023-04-24T04:28:28;15.57;;;6.63;;
23171;SDS011;11754;42.664;23.594;2023-04-24T04:30:55;12.60;;;6.35;;
23171;SDS011;11754;42.664;23.594;2023-04-24T04:33:22;39.25;;;13.05;;
23171;SDS011;11754;42.664;23.594;2023-04-24T04:35:48;47.30;;;17.50;;
23171;SDS011;11754;42.664;23.594;2023-04-24T04:38:14;22.08;;;9.55;;
23171;SDS011;11754;42.664;23.594;2023-04-24T04:47:24;14.48;;;6.28;;
23171;SDS011;11754;42.664;23.594;2023-04-24T04:49:50;15.63;;;7.05;;
23171;SDS011;11754;42.664;23.594;2023-04-24T04:52:18;16.00;;;6.45;;
23171;SDS011;11754;42.664;23.594;2023-04-24T04:54:44;11.85;;;6.20;;
23171;SDS011;11754;42.664;23.594;2023-04-24T04:57:10;13.07;;;5.90;;
23171;SDS011;11754;42.664;23.594;2023-04-24T04:59:35;15.05;;;5.88;;
23171;SDS011;11754;42.664;23.594;2023-04-24T05:02:00;8.60;;;5.35;;
23171;SDS011;11754;42.664;23.594;2023-04-24T05:04:26;13.23;;;5.63;;
23171;SDS011;11754;42.664;23.594;2023-04-24T05:06:51;15.63;;;5.38;;
23171;SDS011;11754;42.664;23.594;2023-04-24T05:09:17;9.48;;;5.20;;
23171;SDS011;11754;42.664;23.594;2023-04-24T05:11:43;11.38;;;4.60;;
23171;SDS011;11754;42.664;23.594;2023-04-24T05:14:08;10.90;;;4.35;;
23171;SDS011;11754;42.664;23.594;2023-04-24T05:16:34;11.75;;;4.70;;
23171;SDS011;11754;42.664;23.594;2023-04-24T05:18:59;10.30;;;4.55;;
23171;SDS011;11754;42.664;23.594;2023-04-24T05:21:25;9.48;;;4.75;;
23171;SDS011;11754;42.664;23.594;2023-04-24T05:23:50;10.88;;;5.05;;
23171;SDS011;11754;42.664;23.594;2023-04-24T05:26:15;14.48;;;5.30;;
23171;SDS011;11754;42.664;23.594;2023-04-24T05:28:41;10.70;;;4.72;;
23171;SDS011;11754;42.664;23.594;2023-04-24T05:31:06;10.07;;;4.60;;
23171;SDS011;11754;42.664;23.594;2023-04-24T05:33:32;8.27;;;4.35;;
23171;SDS011;11754;42.664;23.594;2023-04-24T05:35:57;10.52;;;4.82;;
23171;SDS011;11754;42.664;23.594;2023-04-24T05:38:23;8.00;;;4.55;;
23171;SDS011;11754;42.664;23.594;2023-04-24T05:40:48;8.02;;;4.50;;
23171;SDS011;11754;42.664;23.594;2023-04-24T05:43:13;9.15;;;4.70;;
23171;SDS011;11754;42.664;23.594;2023-04-24T05:45:39;12.23;;;4.53;;
23171;SDS011;11754;42.664;23.594;2023-04-24T05:48:04;10.15;;;4.68;;
23171;SDS011;11754;42.664;23.594;2023-04-24T05:50:30;9.48;;;4.75;;
23171;SDS011;11754;42.664;23.594;2023-04-24T05:52:56;7.53;;;4.00;;
23171;SDS011;11754;42.664;23.594;2023-04-24T05:55:25;11.65;;;4.60;;
23171;SDS011;11754;42.664;23.594;2023-04-24T05:57:51;13.90;;;4.45;;
23171;SDS011;11754;42.664;23.594;2023-04-24T06:00:16;9.57;;;4.20;;
23171;SDS011;11754;42.664;23.594;2023-04-24T06:02:43;11.98;;;4.10;;
23171;SDS011;11754;42.664;23.594;2023-04-24T06:05:08;11.27;;;4.03;;
23171;SDS011;11754;42.664;23.594;2023-04-24T06:07:34;12.23;;;4.53;;
23171;SDS011;11754;42.664;23.594;2023-04-24T06:09:59;10.77;;;4.55;;
23171;SDS011;11754;42.664;23.594;2023-04-24T06:12:28;7.68;;;4.13;;
23171;SDS011;11754;42.664;23.594;2023-04-24T06:14:53;9.43;;;3.92;;
23171;SDS011;11754;42.664;23.594;2023-04-24T06:17:20;10.57;;;4.13;;
23171;SDS011;11754;42.664;23.594;2023-04-24T06:19:45;10.10;;;3.95;;
23171;SDS011;11754;42.664;23.594;2023-04-24T06:22:11;7.72;;;4.03;;
23171;SDS011;11754;42.664;23.594;2023-04-24T06:24:36;9.73;;;4.13;;
23171;SDS011;11754;42.664;23.594;2023-04-24T06:27:02;10.23;;;4.18;;
23171;SDS011;11754;42.664;23.594;2023-04-24T06:29:27;5.97;;;3.70;;
23171;SDS011;11754;42.664;23.594;2023-04-24T06:31:53;11.18;;;4.20;;
23171;SDS011;11754;42.664;23.594;2023-04-24T06:34:33;8.98;;;3.80;;
23171;SDS011;11754;42.664;23.594;2023-04-24T06:36:59;9.65;;;4.13;;
23171;SDS011;11754;42.664;23.594;2023-04-24T06:39:25;5.97;;;3.72;;
23171;SDS011;11754;42.664;23.594;2023-04-24T06:41:50;8.90;;;3.88;;
23171;SDS011;11754;42.664;23.594;2023-04-24T06:44:16;8.05;;;3.63;;
23171;SDS011;11754;42.664;23.594;2023-04-24T06:46:41;7.03;;;3.50;;
23171;SDS011;11754;42.664;23.594;2023-04-24T06:49:07;8.85;;;3.92;;
23171;SDS011;11754;42.664;23.594;2023-04-24T06:51:32;7.15;;;4.00;;
23171;SDS011;11754;42.664;23.594;2023-04-24T06:53:58;10.95;;;4.05;;
23171;SDS011;11754;42.664;23.594;2023-04-24T06:56:24;6.28;;;3.75;;
23171;SDS011;11754;42.664;23.594;2023-04-24T07:02:21;9.48;;;4.55;;
23171;SDS011;11754;42.664;23.594;2023-04-24T07:04:47;7.43;;;3.67;;
23171;SDS011;11754;42.664;23.594;2023-04-24T07:07:15;8.07;;;4.03;;
23171;SDS011;11754;42.664;23.594;2023-04-24T07:09:41;10.55;;;4.22;;
23171;SDS011;11754;42.664;23.594;2023-04-24T07:12:07;8.25;;;4.15;;
23171;SDS011;11754;42.664;23.594;2023-04-24T07:14:33;6.65;;;3.95;;
23171;SDS011;11754;42.664;23.594;2023-04-24T07:16:58;6.63;;;3.83;;
23171;SDS011;11754;42.664;23.594;2023-04-24T07:19:24;8.30;;;3.83;;
23171;SDS011;11754;42.664;23.594;2023-04-24T07:21:49;4.88;;;3.38;;
23171;SDS011;11754;42.664;23.594;2023-04-24T07:24:15;11.20;;;3.97;;
23171;SDS011;11754;42.664;23.594;2023-04-24T07:26:40;7.03;;;3.83;;
23171;SDS011;11754;42.664;23.594;2023-04-24T07:29:06;6.90;;;3.90;;
23171;SDS011;11754;42.664;23.594;2023-04-24T07:31:32;7.90;;;4.00;;
23171;SDS011;11754;42.664;23.594;2023-04-24T07:33:57;11.45;;;3.75;;
23171;SDS011;11754;42.664;23.594;2023-04-24T07:36:23;9.40;;;3.92;;
23171;SDS011;11754;42.664;23.594;2023-04-24T07:38:49;9.70;;;3.85;;
23171;SDS011;11754;42.664;23.594;2023-04-24T07:44:48;8.00;;;3.85;;
23171;SDS011;11754;42.664;23.594;2023-04-24T07:47:14;11.13;;;4.50;;
23171;SDS011;11754;42.664;23.594;2023-04-24T07:49:42;10.52;;;4.38;;
23171;SDS011;11754;42.664;23.594;2023-04-24T07:52:08;11.20;;;4.35;;
23171;SDS011;11754;42.664;23.594;2023-04-24T07:54:33;9.93;;;3.88;;
23171;SDS011;11754;42.664;23.594;2023-04-24T07:56:59;7.63;;;3.67;;
23171;SDS011;11754;42.664;23.594;2023-04-24T07:59:25;6.18;;;4.05;;
23171;SDS011;11754;42.664;23.594;2023-04-24T08:01:51;8.55;;;4.15;;
23171;SDS011;11754;42.664;23.594;2023-04-24T08:04:16;11.27;;;5.07;;
23171;SDS011;11754;42.664;23.594;2023-04-24T08:06:42;9.35;;;5.75;;
23171;SDS011;11754;42.664;23.594;2023-04-24T08:09:08;8.70;;;3.85;;
23171;SDS011;11754;42.664;23.594;2023-04-24T08:11:34;7.10;;;4.18;;
23171;SDS011;11754;42.664;23.594;2023-04-24T08:13:59;9.07;;;4.20;;
23171;SDS011;11754;42.664;23.594;2023-04-24T08:16:24;10.30;;;3.88;;
23171;SDS011;11754;42.664;23.594;2023-04-24T08:18:50;9.30;;;4.00;;
23171;SDS011;11754;42.664;23.594;2023-04-24T08:21:34;7.40;;;3.55;;
23171;SDS011;11754;42.664;23.594;2023-04-24T08:23:59;6.15;;;3.70;;
23171;SDS011;11754;42.664;23.594;2023-04-24T08:26:25;8.82;;;3.70;;
23171;SDS011;11754;42.664;23.594;2023-04-24T08:28:50;9.50;;;3.83;;
23171;SDS011;11754;42.664;23.594;2023-04-24T08:31:16;12.35;;;3.90;;
23171;SDS011;11754;42.664;23.594;2023-04-24T08:33:41;6.50;;;4.03;;
23171;SDS011;11754;42.664;23.594;2023-04-24T08:36:09;10.68;;;4.18;;
23171;SDS011;11754;42.664;23.594;2023-04-24T08:38:35;6.57;;;3.70;;
23171;SDS011;11754;42.664;23.594;2023-04-24T08:41:00;8.15;;;3.97;;
23171;SDS011;11754;42.664;23.594;2023-04-24T08:43:26;9.15;;;3.60;;
23171;SDS011;11754;42.664;23.594;2023-04-24T08:45:52;8.27;;;3.95;;
23171;SDS011;11754;42.664;23.594;2023-04-24T08:48:21;10.45;;;3.75;;
23171;SDS011;11754;42.664;23.594;2023-04-24T08:50:47;8.57;;;3.30;;
23171;SDS011;11754;42.664;23.594;2023-04-24T08:53:15;9.35;;;3.60;;
23171;SDS011;11754;42.664;23.594;2023-04-24T08:55:40;5.78;;;3.05;;
23171;SDS011;11754;42.664;23.594;2023-04-24T08:58:06;6.50;;;3.20;;
23171;SDS011;11754;42.664;23.594;2023-04-24T09:00:32;10.65;;;3.75;;
23171;SDS011;11754;42.664;23.594;2023-04-24T09:02:59;7.28;;;3.22;;
23171;SDS011;11754;42.664;23.594;2023-04-24T09:05:26;5.25;;;3.63;;
23171;SDS011;11754;42.664;23.594;2023-04-24T09:07:55;6.35;;;3.40;;
23171;SDS011;11754;42.664;23.594;2023-04-24T09:10:22;6.82;;;3.30;;
23171;SDS011;11754;42.664;23.594;2023-04-24T09:12:52;5.85;;;3.47;;
23171;SDS011;11754;42.664;23.594;2023-04-24T09:15:19;5.78;;;3.13;;
23171;SDS011;11754;42.664;23.594;2023-04-24T09:17:45;6.28;;;2.95;;
23171;SDS011;11754;42.664;23.594;2023-04-24T09:20:10;9.10;;;3.80;;
23171;SDS011;11754;42.664;23.594;2023-04-24T09:22:36;8.93;;;3.63;;
23171;SDS011;11754;42.664;23.594;2023-04-24T09:25:05;9.70;;;3.40;;
23171;SDS011;11754;42.664;23.594;2023-04-24T09:27:33;6.85;;;2.75;;
23171;SDS011;11754;42.664;23.594;2023-04-24T09:29:59;7.72;;;2.80;;
23171;SDS011;11754;42.664;23.594;2023-04-24T09:35:50;7.70;;;2.70;;
23171;SDS011;11754;42.664;23.594;2023-04-24T09:38:16;6.95;;;3.17;;
23171;SDS011;11754;42.664;23.594;2023-04-24T09:40:42;6.45;;;2.83;;
23171;SDS011;11754;42.664;23.594;2023-04-24T09:43:10;9.57;;;2.72;;
23171;SDS011;11754;42.664;23.594;2023-04-24T09:45:36;5.35;;;2.30;;
23171;SDS011;11754;42.664;23.594;2023-04-24T09:48:03;3.75;;;2.35;;
23171;SDS011;11754;42.664;23.594;2023-04-24T09:50:30;5.72;;;2.60;;
23171;SDS011;11754;42.664;23.594;2023-04-24T09:53:01;5.47;;;2.28;;
23171;SDS011;11754;42.664;23.594;2023-04-24T09:55:28;7.03;;;2.30;;
23171;SDS011;11754;42.664;23.594;2023-04-24T09:57:55;8.25;;;2.70;;
23171;SDS011;11754;42.664;23.594;2023-04-24T10:00:22;9.48;;;2.58;;
23171;SDS011;11754;42.664;23.594;2023-04-24T10:02:53;4.63;;;2.00;;
23171;SDS011;11754;42.664;23.594;2023-04-24T10:05:36;3.33;;;2.10;;
23171;SDS011;11754;42.664;23.594;2023-04-24T10:08:03;5.50;;;1.98;;
23171;SDS011;11754;42.664;23.594;2023-04-24T10:10:35;6.28;;;2.20;;
23171;SDS011;11754;42.664;23.594;2023-04-24T10:13:04;5.82;;;2.10;;
23171;SDS011;11754;42.664;23.594;2023-04-24T10:15:30;7.82;;;2.10;;
23171;SDS011;11754;42.664;23.594;2023-04-24T10:17:55;3.47;;;1.90;;
23171;SDS011;11754;42.664;23.594;2023-04-24T10:20:24;4.93;;;1.60;;
23171;SDS011;11754;42.664;23.594;2023-04-24T10:22:52;6.00;;;1.80;;
23171;SDS011;11754;42.664;23.594;2023-04-24T10:25:19;3.53;;;1.60;;
23171;SDS011;11754;42.664;23.594;2023-04-24T10:34:30;3.80;;;1.40;;
23171;SDS011;11754;42.664;23.594;2023-04-24T10:36:55;3.13;;;1.30;;
23171;SDS011;11754;42.664;23.594;2023-04-24T10:39:22;4.25;;;1.20;;
23171;SDS011;11754;42.664;23.594;2023-04-24T10:41:48;8.05;;;1.20;;
23171;SDS011;11754;42.664;23.594;2023-04-24T10:44:15;2.75;;;1.10;;
23171;SDS011;11754;42.664;23.594;2023-04-24T10:46:44;5.97;;;1.30;;
23171;SDS011;11754;42.664;23.594;2023-04-24T10:49:13;3.88;;;1.13;;
23171;SDS011;11754;42.664;23.594;2023-04-24T10:51:48;2.60;;;1.20;;
23171;SDS011;11754;42.664;23.594;2023-04-24T10:54:24;7.90;;;1.00;;
23171;SDS011;11754;42.664;23.594;2023-04-24T10:56:51;4.93;;;1.20;;
23171;SDS011;11754;42.664;23.594;2023-04-24T10:59:24;3.53;;;1.08;;
23171;SDS011;11754;42.664;23.594;2023-04-24T11:01:59;2.45;;;1.17;;
23171;SDS011;11754;42.664;23.594;2023-04-24T11:04:31;2.55;;;1.02;;
23171;SDS011;11754;42.664;23.594;2023-04-24T11:06:57;4.65;;;1.10;;
23171;SDS011;11754;42.664;23.594;2023-04-24T11:09:26;3.95;;;1.40;;
23171;SDS011;11754;42.664;23.594;2023-04-24T11:12:02;3.90;;;1.10;;
23171;SDS011;11754;42.664;23.594;2023-04-24T11:17:32;8.18;;;1.48;;
23171;SDS011;11754;42.664;23.594;2023-04-24T11:20:05;2.72;;;0.88;;
23171;SDS011;11754;42.664;23.594;2023-04-24T11:22:33;3.28;;;0.90;;
23171;SDS011;11754;42.664;23.594;2023-04-24T11:28:28;11.68;;;1.67;;
23171;SDS011;11754;42.664;23.594;2023-04-24T11:30:53;5.68;;;1.42;;
23171;SDS011;11754;42.664;23.594;2023-04-24T11:33:19;3.15;;;1.00;;
23171;SDS011;11754;42.664;23.594;2023-04-24T11:35:46;4.65;;;1.00;;
23171;SDS011;11754;42.664;23.594;2023-04-24T11:38:12;4.57;;;1.00;;
23171;SDS011;11754;42.664;23.594;2023-04-24T11:40:39;2.85;;;1.02;;
23171;SDS011;11754;42.664;23.594;2023-04-24T11:43:05;3.40;;;1.20;;
23171;SDS011;11754;42.664;23.594;2023-04-24T11:45:31;5.93;;;1.55;;
23171;SDS011;11754;42.664;23.594;2023-04-24T11:47:57;4.35;;;1.60;;
23171;SDS011;11754;42.664;23.594;2023-04-24T11:50:25;4.00;;;1.60;;
23171;SDS011;11754;42.664;23.594;2023-04-24T11:52:52;5.70;;;1.90;;
23171;SDS011;11754;42.664;23.594;2023-04-24T11:57:47;5.63;;;2.10;;
23171;SDS011;11754;42.664;23.594;2023-04-24T12:00:19;4.53;;;2.33;;
23171;SDS011;11754;42.664;23.594;2023-04-24T12:02:45;4.38;;;2.17;;
23171;SDS011;11754;42.664;23.594;2023-04-24T12:05:24;13.32;;;3.20;;
23171;SDS011;11754;42.664;23.594;2023-04-24T12:07:52;5.53;;;2.63;;
23171;SDS011;11754;42.664;23.594;2023-04-24T12:20:35;6.63;;;4.00;;
23171;SDS011;11754;42.664;23.594;2023-04-24T12:23:00;9.38;;;4.30;;
23171;SDS011;11754;42.664;23.594;2023-04-24T12:25:27;5.63;;;3.45;;
23171;SDS011;11754;42.664;23.594;2023-04-24T12:27:54;3.78;;;2.55;;
23171;SDS011;11754;42.664;23.594;2023-04-24T12:30:30;4.88;;;2.85;;
23171;SDS011;11754;42.664;23.594;2023-04-24T12:43:13;3.90;;;1.50;;
23171;SDS011;11754;42.664;23.594;2023-04-24T12:45:40;2.50;;;1.20;;
23171;SDS011;11754;42.664;23.594;2023-04-24T12:48:05;2.33;;;1.00;;
23171;SDS011;11754;42.664;23.594;2023-04-24T12:50:31;1.63;;;0.98;;
23171;SDS011;11754;42.664;23.594;2023-04-24T13:14:40;4.47;;;1.58;;
23171;SDS011;11754;42.664;23.594;2023-04-24T13:17:06;10.35;;;2.40;;
23171;SDS011;11754;42.664;23.594;2023-04-24T13:19:36;4.78;;;2.35;;
23171;SDS011;11754;42.664;23.594;2023-04-24T13:22:02;5.18;;;2.38;;
23171;SDS011;11754;42.664;23.594;2023-04-24T13:24:28;7.80;;;2.40;;
23171;SDS011;11754;42.664;23.594;2023-04-24T13:26:54;4.32;;;2.75;;
23171;SDS011;11754;42.664;23.594;2023-04-24T13:29:21;10.90;;;5.38;;
23171;SDS011;11754;42.664;23.594;2023-04-24T13:31:47;5.32;;;2.88;;
23171;SDS011;11754;42.664;23.594;2023-04-24T13:34:13;5.53;;;2.58;;
23171;SDS011;11754;42.664;23.594;2023-04-24T13:36:38;9.00;;;4.07;;
23171;SDS011;11754;42.664;23.594;2023-04-24T13:39:04;8.25;;;3.40;;
23171;SDS011;11754;42.664;23.594;2023-04-24T13:41:30;8.45;;;3.70;;
23171;SDS011;11754;42.664;23.594;2023-04-24T13:43:57;11.73;;;4.22;;
23171;SDS011;11754;42.664;23.594;2023-04-24T13:46:23;6.70;;;3.45;;
23171;SDS011;11754;42.664;23.594;2023-04-24T13:48:48;5.45;;;2.83;;
23171;SDS011;11754;42.664;23.594;2023-04-24T13:51:14;7.43;;;3.05;;
23171;SDS011;11754;42.664;23.594;2023-04-24T13:53:39;6.32;;;3.17;;
23171;SDS011;11754;42.664;23.594;2023-04-24T13:56:04;5.93;;;2.97;;
23171;SDS011;11754;42.664;23.594;2023-04-24T13:58:34;10.43;;;4.72;;
23171;SDS011;11754;42.664;23.594;2023-04-24T14:01:01;9.55;;;4.03;;
23171;SDS011;11754;42.664;23.594;2023-04-24T14:03:27;6.70;;;3.13;;
23171;SDS011;11754;42.664;23.594;2023-04-24T14:05:52;7.00;;;3.13;;
23171;SDS011;11754;42.664;23.594;2023-04-24T14:08:30;9.05;;;3.30;;
23171;SDS011;11754;42.664;23.594;2023-04-24T14:10:55;9.77;;;3.22;;
23171;SDS011;11754;42.664;23.594;2023-04-24T14:13:21;8.50;;;4.18;;
23171;SDS011;11754;42.664;23.594;2023-04-24T14:15:46;4.40;;;2.75;;
23171;SDS011;11754;42.664;23.594;2023-04-24T14:18:12;4.75;;;2.50;;
23171;SDS011;11754;42.664;23.594;2023-04-24T14:20:37;7.95;;;3.33;;
23171;SDS011;11754;42.664;23.594;2023-04-24T14:23:03;7.90;;;3.08;;
23171;SDS011;11754;42.664;23.594;2023-04-24T14:25:29;5.43;;;2.95;;
23171;SDS011;11754;42.664;23.594;2023-04-24T14:27:55;12.63;;;6.65;;
23171;SDS011;11754;42.664;23.594;2023-04-24T14:30:20;14.95;;;7.20;;
23171;SDS011;11754;42.664;23.594;2023-04-24T14:32:46;10.95;;;5.85;;
23171;SDS011;11754;42.664;23.594;2023-04-24T14:35:12;14.60;;;4.93;;
23171;SDS011;11754;42.664;23.594;2023-04-24T14:37:37;5.60;;;3.22;;
23171;SDS011;11754;42.664;23.594;2023-04-24T14:40:03;4.30;;;2.83;;
23171;SDS011;11754;42.664;23.594;2023-04-24T14:42:31;5.50;;;3.42;;
23171;SDS011;11754;42.664;23.594;2023-04-24T14:44:56;6.93;;;3.30;;
23171;SDS011;11754;42.664;23.594;2023-04-24T14:47:22;8.70;;;4.03;;
23171;SDS011;11754;42.664;23.594;2023-04-24T15:03:14;7.63;;;3.30;;
23171;SDS011;11754;42.664;23.594;2023-04-24T15:05:40;8.95;;;4.13;;
23171;SDS011;11754;42.664;23.594;2023-04-24T15:08:05;16.50;;;6.97;;
23171;SDS011;11754;42.664;23.594;2023-04-24T15:10:30;10.90;;;5.63;;
23171;SDS011;11754;42.664;23.594;2023-04-24T15:12:56;16.90;;;7.90;;
23171;SDS011;11754;42.664;23.594;2023-04-24T15:15:21;32.88;;;13.68;;
23171;SDS011;11754;42.664;23.594;2023-04-24T15:17:47;9.95;;;5.10;;
23171;SDS011;11754;42.664;23.594;2023-04-24T15:20:12;25.63;;;10.07;;
23171;SDS011;11754;42.664;23.594;2023-04-24T15:22:38;9.55;;;5.63;;
23171;SDS011;11754;42.664;23.594;2023-04-24T15:25:03;8.93;;;4.80;;
23171;SDS011;11754;42.664;23.594;2023-04-24T15:27:43;8.35;;;4.78;;
23171;SDS011;11754;42.664;23.594;2023-04-24T15:30:09;8.43;;;3.92;;
23171;SDS011;11754;42.664;23.594;2023-04-24T15:32:35;6.30;;;4.30;;
23171;SDS011;11754;42.664;23.594;2023-04-24T15:41:44;13.43;;;8.55;;
23171;SDS011;11754;42.664;23.594;2023-04-24T15:44:09;6.97;;;5.63;;
23171;SDS011;11754;42.664;23.594;2023-04-24T15:46:35;8.32;;;5.75;;
23171;SDS011;11754;42.664;23.594;2023-04-24T15:49:01;10.48;;;6.00;;
23171;SDS011;11754;42.664;23.594;2023-04-24T15:51:26;9.82;;;6.05;;
23171;SDS011;11754;42.664;23.594;2023-04-24T15:53:51;8.77;;;6.38;;
23171;SDS011;11754;42.664;23.594;2023-04-24T15:56:17;14.07;;;7.03;;
23171;SDS011;11754;42.664;23.594;2023-04-24T15:58:42;10.35;;;6.50;;